Çanakkale Airport

LTBH · 恰纳卡莱省, 土耳其

2024年6月13日 21:002024年6月14日 06:00有效
时间
星期四
21:00
星期四
22:00
星期四
23:00
星期五
00:00
星期五
01:00
星期五
02:00
星期五
03:00
星期五
04:00
星期五
05:00
代码
VFR
VFR
VFR
VFR
VFR
VFR
VFR
VFR
VFR
天气
天空晴朗
天空晴朗
天空晴朗
天空晴朗
天空晴朗
天空晴朗
天空晴朗
天空晴朗
天空晴朗
能见度
10 km+
10 km+
10 km+
10 km+
10 km+
10 km+
10 km+
10 km+
10 km+
天花板
-
-
-
-
-
-
-
-
-
Var
Var
Var
Var
Var
Var
Var
Var
Var
Var
Var
Var
Var
Var
Var
Var
Var
Var
速度
2 kt
2 kt
2 kt
2 kt
2 kt
2 kt
2 kt
2 kt
2 kt
阵风
温度/星期日

原版的

TAF LTBH 131640Z 1318/1403 VRB02KT CAVOK

TAF Çanakkale Airport

Çanakkale Airport是,土耳其中的中型机场。 该机场位于纬度40,13535和经度26,42440。 该机场有一条跑道: 4/22. 本场的ICAO机场代码为LTBH。 该机场的IATA代码为CKZ。 机场在Istanbul FIR中。

该航空气象观测是针对Çanakkale Airport在2024年6月13日 19:40, 当地时间进行的。 从2024年6月13日 21:00到2024年6月14日 06:00, 当地时间有效.

预报

  • 在星期四 21:00和星期五 06:00之间

    • 风: 可变方向的风很小或没有。
    • CAVOK: 天气为CAVOK。这意味着在5.000 ft或MSA(最低安全高度)以下(以较高者为准)以下没有云。这也意味着没有观测到积雨云或高耸的积云,可见度为10 km 或者更多或更高。此外,不会有雾,降雨或其他重要天气。

白天

今天,太阳从05:44升起,在20:44降落。 这适用于Çanakkale Airport,世界夏令时可能有所不同。 当地时间与世界标准时间之间的时差为+3 小时。 夏令时目前正在进行中。

报告变更